createdAt,value
2022-11-25T00:01:10.140Z,15.43
2022-11-25T00:03:15.151Z,12.23
2022-11-25T00:05:19.926Z,11.88
2022-11-25T00:07:24.974Z,13.23
2022-11-25T00:09:29.786Z,14.35
2022-11-25T00:11:36.816Z,14.40
2022-11-25T00:13:45.433Z,12.38
2022-11-25T00:15:50.205Z,11.60
2022-11-25T00:17:55.451Z,13.55
2022-11-25T00:24:11.200Z,13.38
2022-11-25T00:26:18.722Z,13.48
2022-11-25T00:28:23.559Z,15.45
2022-11-25T00:30:30.974Z,12.52
2022-11-25T00:32:35.858Z,15.93
2022-11-25T00:34:40.695Z,14.30
2022-11-25T00:36:46.131Z,14.68
2022-11-25T00:38:55.203Z,14.73
2022-11-25T00:41:12.544Z,14.15
2022-11-25T00:43:29.740Z,11.20
2022-11-25T00:45:37.172Z,12.02
2022-11-25T00:47:44.044Z,13.23
2022-11-25T00:49:50.889Z,10.65
2022-11-25T00:51:55.917Z,12.65
2022-11-25T00:54:00.715Z,12.25
2022-11-25T00:56:18.342Z,13.90
2022-11-25T00:58:23.169Z,11.70
2022-11-25T01:00:27.930Z,12.32
2022-11-25T01:02:35.361Z,13.10
2022-11-25T01:04:40.502Z,13.25
2022-11-25T01:06:46.374Z,12.15
2022-11-25T01:08:53.116Z,10.75
2022-11-25T01:11:01.526Z,13.38
2022-11-25T01:13:06.282Z,15.27
2022-11-25T01:15:12.705Z,10.95
2022-11-25T01:17:17.526Z,13.20
2022-11-25T01:19:25.252Z,11.07
2022-11-25T01:21:31.900Z,11.10
2022-11-25T01:23:36.990Z,12.35
2022-11-25T01:25:42.692Z,11.63
2022-11-25T01:27:47.549Z,11.80
2022-11-25T01:29:52.283Z,14.30
2022-11-25T01:31:58.796Z,12.02
2022-11-25T01:34:07.283Z,12.23
2022-11-25T01:36:18.219Z,9.43
2022-11-25T01:38:22.981Z,10.20
2022-11-25T01:40:27.847Z,11.77
2022-11-25T01:42:33.859Z,9.30
2022-11-25T01:44:42.566Z,11.70
2022-11-25T01:46:58.290Z,11.27
2022-11-25T01:51:23.176Z,11.65
2022-11-25T01:53:28.104Z,10.13
2022-11-25T01:55:38.964Z,8.88
2022-11-25T01:57:48.096Z,10.40
2022-11-25T01:59:55.232Z,8.80
2022-11-25T02:14:57.265Z,10.13
2022-11-25T02:17:04.078Z,9.80
2022-11-25T02:19:21.233Z,8.52
2022-11-25T02:21:32.505Z,11.27
2022-11-25T02:23:43.640Z,7.97
2022-11-25T02:25:51.396Z,7.93
2022-11-25T02:28:01.033Z,10.60
2022-11-25T02:30:06.989Z,15.68
2022-11-25T02:32:12.731Z,9.65
2022-11-25T02:34:18.694Z,11.32
2022-11-25T02:36:25.723Z,9.57
2022-11-25T02:38:42.014Z,11.57
2022-11-25T02:40:55.911Z,10.82
2022-11-25T02:43:03.339Z,11.27
2022-11-25T02:45:15.024Z,9.13
2022-11-25T02:47:20.322Z,11.65
2022-11-25T02:49:25.451Z,9.80
2022-11-25T02:51:32.979Z,9.13
2022-11-25T02:53:38.123Z,9.43
2022-11-25T02:55:43.466Z,8.93
2022-11-25T02:59:55.926Z,11.18
2022-11-25T03:02:01.161Z,11.75
2022-11-25T03:06:11.621Z,11.05
2022-11-25T03:08:17.313Z,9.73
2022-11-25T03:10:23.264Z,8.95
2022-11-25T03:12:29.657Z,11.27
2022-11-25T03:14:38.629Z,9.57
2022-11-25T03:16:48.724Z,12.85
2022-11-25T03:18:53.800Z,13.25
2022-11-25T03:20:59.264Z,13.98
2022-11-25T03:23:04.485Z,11.70
2022-11-25T03:27:14.741Z,9.95
2022-11-25T03:31:27.481Z,9.75
2022-11-25T03:33:32.641Z,7.65
2022-11-25T03:35:37.753Z,13.23
2022-11-25T03:37:43.010Z,9.02
2022-11-25T03:39:52.702Z,7.07
2022-11-25T03:41:57.864Z,9.88
2022-11-25T03:44:03.720Z,7.10
2022-11-25T03:46:09.252Z,12.48
2022-11-25T03:48:17.137Z,10.57
2022-11-25T03:50:22.403Z,11.05
2022-11-25T03:52:27.901Z,10.60
2022-11-25T03:54:34.799Z,8.25
2022-11-25T03:56:55.713Z,8.57
2022-11-25T03:59:00.840Z,7.90
2022-11-25T04:01:07.028Z,7.63
2022-11-25T04:03:12.730Z,12.30
2022-11-25T04:05:20.662Z,9.88
2022-11-25T04:07:27.140Z,12.45
2022-11-25T04:09:34.111Z,11.68
2022-11-25T04:11:54.364Z,8.25
2022-11-25T04:13:59.570Z,7.75
2022-11-25T04:18:10.094Z,10.07
2022-11-25T04:22:29.966Z,10.73
2022-11-25T04:24:37.292Z,8.95
2022-11-25T04:26:43.350Z,8.05
2022-11-25T04:30:53.560Z,12.75
2022-11-25T04:32:59.090Z,9.95
2022-11-25T04:35:04.301Z,9.15
2022-11-25T04:37:09.631Z,8.13
2022-11-25T04:41:22.609Z,8.75
2022-11-25T04:46:12.634Z,8.73
2022-11-25T04:48:09.157Z,11.48
2022-11-25T04:50:18.873Z,8.90
2022-11-25T04:52:33.778Z,10.25
2022-11-25T04:54:41.545Z,8.68
2022-11-25T04:56:46.603Z,10.02
2022-11-25T04:59:04.101Z,8.27
2022-11-25T05:01:09.347Z,12.38
2022-11-25T05:03:17.501Z,10.82
2022-11-25T05:05:22.825Z,9.88
2022-11-25T05:07:30.748Z,12.10
2022-11-25T05:09:36.120Z,11.50
2022-11-25T05:11:59.900Z,11.10
2022-11-25T05:14:05.264Z,11.40
2022-11-25T05:16:11.527Z,12.15
2022-11-25T05:18:18.346Z,8.95
2022-11-25T05:20:26.488Z,9.35
2022-11-25T05:22:33.498Z,10.75
2022-11-25T05:24:39.271Z,12.35
2022-11-25T05:26:45.494Z,9.88
2022-11-25T05:28:53.302Z,9.75
2022-11-25T05:30:58.702Z,14.80
2022-11-25T05:33:04.050Z,12.43
2022-11-25T05:35:11.647Z,9.30
2022-11-25T05:37:22.829Z,9.85
2022-11-25T05:39:34.066Z,12.73
2022-11-25T05:41:57.853Z,13.40
2022-11-25T05:44:05.561Z,14.18
2022-11-25T05:46:12.852Z,14.85
2022-11-25T05:48:24.463Z,12.77
2022-11-25T05:50:30.395Z,12.38
2022-11-25T05:52:42.991Z,14.88
2022-11-25T05:54:48.181Z,16.35
2022-11-25T05:56:55.124Z,15.00
2022-11-25T05:59:35.022Z,11.75
2022-11-25T06:01:48.201Z,16.67
2022-11-25T06:03:53.674Z,13.30
2022-11-25T06:05:59.221Z,17.13
2022-11-25T06:08:04.287Z,16.83
2022-11-25T06:12:17.807Z,12.00
2022-11-25T06:14:27.113Z,14.95
2022-11-25T06:16:38.461Z,13.93
2022-11-25T06:18:58.157Z,13.95
2022-11-25T06:21:04.882Z,14.93
2022-11-25T06:23:10.510Z,14.90
2022-11-25T06:25:19.583Z,15.68
2022-11-25T06:27:29.636Z,15.05
2022-11-25T06:29:44.133Z,16.52
2022-11-25T06:31:53.115Z,16.52
2022-11-25T06:34:18.406Z,14.43
2022-11-25T06:36:24.919Z,17.95
2022-11-25T06:38:30.699Z,16.17
2022-11-25T06:40:35.777Z,14.07
2022-11-25T06:44:48.605Z,14.50
2022-11-25T06:46:56.336Z,15.65
2022-11-25T06:49:02.750Z,14.10
2022-11-25T06:51:10.107Z,15.18
2022-11-25T06:53:17.753Z,14.32
2022-11-25T06:55:26.328Z,14.35
2022-11-25T06:57:34.094Z,13.23
2022-11-25T06:59:39.489Z,12.20
2022-11-25T07:01:44.702Z,13.02
2022-11-25T07:03:54.184Z,13.40
2022-11-25T07:05:59.734Z,12.85
2022-11-25T07:08:04.764Z,12.73
2022-11-25T07:10:11.718Z,12.38
2022-11-25T07:12:16.943Z,12.48
2022-11-25T07:16:27.168Z,17.83
2022-11-25T07:18:34.021Z,14.02
2022-11-25T07:20:41.870Z,15.55
2022-11-25T07:22:47.408Z,12.30
2022-11-25T07:24:52.913Z,13.73
2022-11-25T07:26:57.974Z,11.10
2022-11-25T07:29:06.388Z,13.15
2022-11-25T07:31:34.806Z,16.30
2022-11-25T07:33:40.228Z,14.93
2022-11-25T07:37:53.324Z,14.15
2022-11-25T07:39:58.417Z,14.18
2022-11-25T07:42:03.500Z,12.52
2022-11-25T07:44:10.511Z,16.77
2022-11-25T07:46:43.641Z,15.27
2022-11-25T07:48:49.254Z,14.45
2022-11-25T07:50:56.936Z,13.38
2022-11-25T07:53:02.322Z,14.32
2022-11-25T07:55:08.022Z,15.98
2022-11-25T07:57:13.159Z,13.20
2022-11-25T07:59:21.162Z,13.63
2022-11-25T08:01:27.155Z,13.02
2022-11-25T08:03:32.286Z,15.20
2022-11-25T08:05:37.627Z,16.02
2022-11-25T08:07:46.730Z,14.52
2022-11-25T08:09:51.916Z,13.85
2022-11-25T08:11:57.122Z,14.70
2022-11-25T08:16:09.345Z,13.70
2022-11-25T08:18:14.446Z,14.00
2022-11-25T08:20:19.497Z,13.52
2022-11-25T08:22:24.574Z,13.85
2022-11-25T08:24:32.301Z,13.20
2022-11-25T08:26:39.757Z,12.63
2022-11-25T08:28:48.156Z,14.23
2022-11-25T08:30:53.258Z,12.10
2022-11-25T08:32:58.722Z,13.63
2022-11-25T08:35:04.042Z,13.98
2022-11-25T08:37:09.328Z,16.77
2022-11-25T08:39:36.309Z,12.77
2022-11-25T08:41:42.247Z,12.57
2022-11-25T08:43:47.485Z,9.70
2022-11-25T08:45:53.258Z,9.52
2022-11-25T08:47:58.536Z,10.70
2022-11-25T08:52:08.336Z,12.52
2022-11-25T08:54:14.612Z,13.18
2022-11-25T08:56:25.467Z,12.70
2022-11-25T08:58:33.940Z,11.25
2022-11-25T09:00:39.246Z,12.82
2022-11-25T09:02:44.408Z,9.52
2022-11-25T09:06:54.433Z,10.48
2022-11-25T09:09:01.984Z,10.18
2022-11-25T09:11:07.811Z,11.55
2022-11-25T09:13:13.407Z,10.57
2022-11-25T09:15:21.269Z,10.98
2022-11-25T09:17:27.587Z,11.10
2022-11-25T09:19:32.609Z,9.40
2022-11-25T09:21:37.881Z,10.20
2022-11-25T09:23:43.727Z,9.38
2022-11-25T09:25:55.142Z,10.77
2022-11-25T09:28:00.465Z,8.00
2022-11-25T09:32:15.924Z,11.70
2022-11-25T09:34:21.040Z,13.20
2022-11-25T09:36:26.808Z,23.02
2022-11-25T09:38:31.948Z,9.30
2022-11-25T09:40:44.730Z,8.50
2022-11-25T09:43:09.938Z,13.05
2022-11-25T09:45:35.305Z,12.53
2022-11-25T09:47:57.777Z,10.80
2022-11-25T09:50:15.726Z,8.40
2022-11-25T09:52:30.177Z,8.13
2022-11-25T09:54:40.132Z,7.93
2022-11-25T09:56:51.012Z,9.85
2022-11-25T09:59:02.491Z,9.25
2022-11-25T10:01:09.930Z,8.40
2022-11-25T10:03:36.222Z,8.93
2022-11-25T10:07:56.541Z,12.95
2022-11-25T10:10:04.389Z,8.50
2022-11-25T10:12:16.659Z,9.00
2022-11-25T10:14:31.346Z,9.82
2022-11-25T10:16:47.231Z,10.15
2022-11-25T10:19:03.643Z,6.63
2022-11-25T10:21:09.383Z,6.32
2022-11-25T10:23:23.573Z,9.88
2022-11-25T10:25:34.518Z,9.57
2022-11-25T10:27:46.778Z,7.82
2022-11-25T10:30:02.927Z,8.18
2022-11-25T10:32:21.512Z,6.95
2022-11-25T10:34:36.698Z,6.78
2022-11-25T10:36:44.394Z,6.32
2022-11-25T10:39:00.230Z,7.80
2022-11-25T10:43:15.848Z,5.78
2022-11-25T10:45:25.970Z,6.90
2022-11-25T10:47:40.478Z,6.35
2022-11-25T10:50:00.069Z,5.93
2022-11-25T10:52:12.867Z,6.13
2022-11-25T10:54:27.215Z,7.55
2022-11-25T10:56:32.870Z,9.47
2022-11-25T10:58:39.707Z,8.45
2022-11-25T11:00:44.767Z,7.15
2022-11-25T11:02:50.118Z,6.40
2022-11-25T11:07:11.921Z,6.10
2022-11-25T11:09:37.214Z,7.37
2022-11-25T11:11:51.004Z,6.63
2022-11-25T11:14:02.551Z,7.18
2022-11-25T11:16:23.744Z,6.10
2022-11-25T11:18:31.721Z,6.25
2022-11-25T11:20:39.574Z,7.65
2022-11-25T11:22:51.244Z,7.53
2022-11-25T11:25:08.970Z,6.80
2022-11-25T11:27:23.781Z,6.97
2022-11-25T11:29:28.988Z,6.43
2022-11-25T11:31:39.371Z,6.32
2022-11-25T11:33:54.437Z,6.90
2022-11-25T11:36:13.729Z,6.78
2022-11-25T11:38:29.326Z,8.73
2022-11-25T11:40:42.203Z,7.32
2022-11-25T11:43:00.379Z,8.90
2022-11-25T11:45:19.236Z,6.13
2022-11-25T11:47:31.504Z,8.32
2022-11-25T11:49:59.862Z,7.78
2022-11-25T11:52:17.354Z,10.27
2022-11-25T11:54:33.424Z,12.73
2022-11-25T11:56:43.221Z,10.20
2022-11-25T11:59:01.559Z,13.57
2022-11-25T12:01:22.518Z,15.07
2022-11-25T12:03:30.401Z,15.43
2022-11-25T12:05:38.276Z,20.20
2022-11-25T12:07:55.418Z,16.08
2022-11-25T12:10:06.291Z,22.23
2022-11-25T12:12:19.312Z,12.40
2022-11-25T12:14:34.313Z,26.33
2022-11-25T12:16:46.017Z,25.23
2022-11-25T12:18:57.641Z,28.65
2022-11-25T12:21:05.580Z,29.48
2022-11-25T12:23:21.976Z,27.10
2022-11-25T12:25:31.457Z,13.02
2022-11-25T12:27:40.442Z,12.80
2022-11-25T12:29:50.822Z,10.05
2022-11-25T12:32:03.217Z,9.18
2022-11-25T12:34:14.648Z,9.40
2022-11-25T12:36:27.212Z,7.63
2022-11-25T12:38:42.744Z,11.98
2022-11-25T12:40:53.152Z,6.30
2022-11-25T12:43:15.514Z,6.72
2022-11-25T12:45:24.864Z,7.82
2022-11-25T12:47:30.223Z,6.88
2022-11-25T12:49:43.649Z,6.80
2022-11-25T12:52:19.051Z,6.15
2022-11-25T12:54:39.791Z,8.38
2022-11-25T12:57:03.841Z,6.85
2022-11-25T12:59:28.215Z,6.00
2022-11-25T13:01:52.239Z,8.52
2022-11-25T13:04:26.327Z,9.40
2022-11-25T13:06:47.180Z,8.15
2022-11-25T13:09:02.286Z,8.35
2022-11-25T13:11:37.914Z,9.10
2022-11-25T13:13:54.342Z,10.07
2022-11-25T13:16:04.227Z,6.38
2022-11-25T13:18:15.100Z,6.10
2022-11-25T13:20:38.476Z,6.82
2022-11-25T13:22:43.597Z,7.30
2022-11-25T13:24:48.662Z,7.55
2022-11-25T13:26:56.365Z,8.60
2022-11-25T13:29:02.297Z,9.93
2022-11-25T13:31:27.581Z,12.68
2022-11-25T13:34:05.142Z,9.35
2022-11-25T13:36:20.646Z,9.95
2022-11-25T13:39:02.730Z,6.50
2022-11-25T13:41:25.981Z,6.25
2022-11-25T13:43:33.686Z,6.68
2022-11-25T13:45:43.718Z,10.98
2022-11-25T13:47:51.958Z,8.07
2022-11-25T13:49:59.188Z,7.78
2022-11-25T13:52:11.267Z,7.63
2022-11-25T13:54:23.766Z,8.10
2022-11-25T13:56:32.647Z,8.48
2022-11-25T13:58:40.290Z,9.35
2022-11-25T14:01:07.433Z,9.27
2022-11-25T14:03:42.322Z,8.35
2022-11-25T14:06:02.872Z,8.00
2022-11-25T14:08:18.185Z,8.95
2022-11-25T14:10:38.984Z,9.27
2022-11-25T14:13:01.721Z,9.52
2022-11-25T14:15:23.969Z,11.25
2022-11-25T14:17:51.698Z,6.85
2022-11-25T14:20:16.929Z,11.77
2022-11-25T14:22:36.318Z,14.00
2022-11-25T14:24:48.171Z,9.35
2022-11-25T14:26:55.010Z,8.60
2022-11-25T14:29:03.700Z,8.73
2022-11-25T14:31:16.862Z,9.90
2022-11-25T14:33:26.859Z,10.98
2022-11-25T14:35:45.056Z,8.10
2022-11-25T14:37:54.623Z,8.00
2022-11-25T14:40:04.352Z,7.90
2022-11-25T14:42:12.782Z,10.00
2022-11-25T14:44:22.942Z,7.35
2022-11-25T14:46:30.720Z,11.15
2022-11-25T14:48:35.743Z,12.95
2022-11-25T14:50:41.319Z,8.80
2022-11-25T14:52:48.283Z,9.40
2022-11-25T14:54:55.138Z,15.07
2022-11-25T14:57:00.315Z,11.57
2022-11-25T15:01:19.950Z,12.73
2022-11-25T15:03:27.961Z,11.68
2022-11-25T15:05:36.194Z,12.20
2022-11-25T15:07:46.231Z,10.35
2022-11-25T15:09:52.323Z,16.23
2022-11-25T15:12:00.344Z,8.82
2022-11-25T15:14:08.004Z,13.02
2022-11-25T15:16:18.198Z,10.32
2022-11-25T15:18:27.940Z,11.15
2022-11-25T15:20:35.370Z,12.18
2022-11-25T15:22:40.615Z,11.07
2022-11-25T15:27:02.895Z,11.63
2022-11-25T15:29:14.689Z,11.68
2022-11-25T15:31:22.112Z,11.90
2022-11-25T15:33:31.512Z,14.95
2022-11-25T15:35:36.932Z,13.93
2022-11-25T15:37:42.038Z,9.18
2022-11-25T15:39:47.434Z,13.90
2022-11-25T15:41:53.678Z,11.82
2022-11-25T15:44:00.980Z,10.18
2022-11-25T15:46:09.012Z,11.77
2022-11-25T15:48:19.896Z,16.15
2022-11-25T15:50:29.387Z,10.32
2022-11-25T15:52:36.357Z,13.60
2022-11-25T15:54:44.405Z,10.80
2022-11-25T15:56:51.970Z,13.27
2022-11-25T15:59:01.528Z,10.77
2022-11-25T16:01:22.308Z,13.50
2022-11-25T16:03:27.436Z,13.65
2022-11-25T16:05:39.262Z,16.08
2022-11-25T16:08:00.134Z,23.60
2022-11-25T16:10:06.278Z,18.13
2022-11-25T16:12:20.433Z,15.52
2022-11-25T16:14:30.795Z,16.45
2022-11-25T16:16:38.721Z,14.52
2022-11-25T16:18:47.544Z,11.85
2022-11-25T16:20:57.980Z,16.80
2022-11-25T16:23:07.145Z,15.85
2022-11-25T16:25:13.085Z,14.55
2022-11-25T16:27:21.593Z,14.90
2022-11-25T16:29:33.229Z,17.70
2022-11-25T16:31:38.246Z,16.15
2022-11-25T16:33:43.371Z,16.80
2022-11-25T16:35:48.526Z,17.02
2022-11-25T16:38:00.887Z,21.90
2022-11-25T16:40:06.979Z,22.77
2022-11-25T16:42:20.270Z,25.48
2022-11-25T16:44:27.427Z,18.48
2022-11-25T16:46:32.897Z,21.25
2022-11-25T16:48:37.928Z,21.58
2022-11-25T16:50:42.997Z,17.83
2022-11-25T16:52:48.138Z,18.15
2022-11-25T16:54:55.760Z,14.45
2022-11-25T16:57:01.543Z,16.73
2022-11-25T16:59:06.983Z,15.18
2022-11-25T17:01:16.428Z,14.20
2022-11-25T17:03:22.202Z,17.50
2022-11-25T17:05:30.254Z,12.73
2022-11-25T17:07:35.553Z,13.30
2022-11-25T17:09:41.010Z,15.48
2022-11-25T17:11:54.974Z,18.60
2022-11-25T17:14:04.204Z,17.80
2022-11-25T17:16:13.097Z,12.27
2022-11-25T17:18:21.454Z,15.60
2022-11-25T17:20:27.785Z,14.32
2022-11-25T17:22:38.720Z,13.98
2022-11-25T17:24:44.629Z,12.88
2022-11-25T17:26:59.273Z,9.55
2022-11-25T17:29:06.961Z,13.63
2022-11-25T17:31:13.762Z,11.77
2022-11-25T17:33:23.112Z,11.25
2022-11-25T17:35:29.266Z,10.98
2022-11-25T17:37:35.647Z,12.40
2022-11-25T17:39:40.863Z,11.07
2022-11-25T17:41:50.792Z,12.52
2022-11-25T17:43:59.566Z,14.55
2022-11-25T17:46:05.074Z,12.73
2022-11-25T17:48:13.087Z,16.02
2022-11-25T17:50:21.408Z,13.80
2022-11-25T17:52:26.600Z,15.10
2022-11-25T17:56:36.641Z,13.98
2022-11-25T17:58:41.854Z,16.40
2022-11-25T18:02:54.726Z,15.02
2022-11-25T18:07:04.897Z,15.48
2022-11-25T18:09:09.981Z,14.70
2022-11-25T18:11:23.071Z,17.38
2022-11-25T18:13:28.362Z,16.17
2022-11-25T18:17:42.647Z,12.95
2022-11-25T18:19:54.638Z,19.13
2022-11-25T18:22:03.271Z,20.48
2022-11-25T18:24:10.451Z,20.02
2022-11-25T18:26:15.682Z,21.88
2022-11-25T18:30:31.012Z,19.65
2022-11-25T18:32:36.170Z,16.08
2022-11-25T18:34:44.257Z,21.42
2022-11-25T18:36:49.307Z,19.83
2022-11-25T18:40:59.566Z,18.58
2022-11-25T18:43:06.380Z,13.50
2022-11-25T18:45:18.725Z,15.20
2022-11-25T18:47:23.773Z,16.95
2022-11-25T18:49:28.854Z,22.52
2022-11-25T18:51:36.627Z,29.65
2022-11-25T18:53:41.809Z,27.65
2022-11-25T18:57:53.462Z,21.65
2022-11-25T19:00:24.329Z,19.65
2022-11-25T19:02:26.305Z,17.70
2022-11-25T19:04:31.653Z,13.77
2022-11-25T19:08:46.743Z,14.38
2022-11-25T19:10:52.335Z,13.13
2022-11-25T19:13:00.666Z,13.77
2022-11-25T19:15:06.165Z,12.70
2022-11-25T19:17:19.785Z,14.98
2022-11-25T19:19:25.313Z,17.52
2022-11-25T19:21:30.751Z,16.13
2022-11-25T19:23:38.512Z,20.55
2022-11-25T19:25:43.665Z,16.27
2022-11-25T19:27:53.141Z,18.30
2022-11-25T19:29:58.355Z,19.98
2022-11-25T19:32:08.467Z,21.23
2022-11-25T19:34:23.675Z,16.35
2022-11-25T19:36:31.352Z,13.95
2022-11-25T19:38:38.959Z,14.25
2022-11-25T19:40:44.006Z,14.73
2022-11-25T19:42:52.095Z,13.43
2022-11-25T19:44:57.119Z,13.43
2022-11-25T19:47:17.681Z,14.32
2022-11-25T19:49:24.082Z,13.35
2022-11-25T19:51:32.766Z,28.30
2022-11-25T19:53:40.417Z,15.90
2022-11-25T19:55:46.907Z,13.35
2022-11-25T19:57:53.076Z,20.20
2022-11-25T19:59:58.095Z,14.07
2022-11-25T20:02:03.318Z,15.15
2022-11-25T20:06:17.022Z,14.75
2022-11-25T20:08:24.051Z,18.85
2022-11-25T20:10:34.019Z,19.05
2022-11-25T20:12:39.432Z,14.98
2022-11-25T20:14:44.565Z,27.48
2022-11-25T20:16:49.661Z,18.05
2022-11-25T20:18:56.014Z,18.38
2022-11-25T20:21:05.686Z,16.45
2022-11-25T20:23:15.199Z,17.25
2022-11-25T20:25:20.408Z,18.05
2022-11-25T20:29:33.765Z,16.15
2022-11-25T20:31:38.789Z,14.77
2022-11-25T20:35:52.315Z,17.98
2022-11-25T20:37:58.183Z,18.45
2022-11-25T20:40:04.080Z,23.63
2022-11-25T20:42:09.617Z,16.02
2022-11-25T20:44:17.831Z,16.27
2022-11-25T20:46:25.019Z,16.40
2022-11-25T20:48:31.623Z,14.43
2022-11-25T20:50:36.780Z,12.68
2022-11-25T20:52:42.287Z,17.50
2022-11-25T20:54:47.366Z,18.40
2022-11-25T20:56:52.429Z,16.58
2022-11-25T20:58:58.361Z,17.88
2022-11-25T21:01:06.648Z,22.17
2022-11-25T21:03:11.766Z,19.73
2022-11-25T21:07:25.004Z,21.23
2022-11-25T21:09:36.697Z,20.13
2022-11-25T21:11:41.805Z,14.75
2022-11-25T21:13:47.295Z,17.17
2022-11-25T21:15:53.361Z,17.98
2022-11-25T21:18:01.107Z,18.17
2022-11-25T21:20:06.466Z,19.83
2022-11-25T21:22:16.516Z,19.60
2022-11-25T21:24:30.768Z,20.15
2022-11-25T21:26:36.292Z,24.52
2022-11-25T21:28:48.346Z,20.08
2022-11-25T21:30:53.975Z,20.63
2022-11-25T21:33:03.281Z,16.45
2022-11-25T21:35:09.324Z,16.60
2022-11-25T21:37:14.597Z,15.52
2022-11-25T21:41:31.290Z,17.90
2022-11-25T21:43:42.925Z,14.13
2022-11-25T21:45:48.825Z,15.35
2022-11-25T21:47:54.024Z,15.75
2022-11-25T21:50:01.937Z,16.05
2022-11-25T21:52:07.361Z,16.33
2022-11-25T21:54:13.327Z,13.60
2022-11-25T21:56:24.957Z,19.70
2022-11-25T21:58:32.845Z,17.15
2022-11-25T22:00:38.294Z,15.38
2022-11-25T22:04:49.570Z,17.98
2022-11-25T22:06:57.402Z,17.83
2022-11-25T22:09:02.452Z,17.52
2022-11-25T22:11:08.727Z,17.15
2022-11-25T22:13:17.859Z,15.80
2022-11-25T22:15:25.337Z,16.52
2022-11-25T22:17:32.169Z,20.73
2022-11-25T22:19:37.346Z,15.82
2022-11-25T22:23:49.774Z,27.92
2022-11-25T22:25:55.402Z,33.20
2022-11-25T22:28:00.509Z,49.20
2022-11-25T22:30:06.238Z,39.60
2022-11-25T22:32:14.758Z,33.30
2022-11-25T22:34:25.136Z,26.23
2022-11-25T22:36:35.891Z,23.00
2022-11-25T22:38:42.119Z,23.75
2022-11-25T22:40:53.322Z,26.85
2022-11-25T22:43:00.947Z,23.52
2022-11-25T22:45:10.382Z,26.00
2022-11-25T22:47:22.730Z,20.30
2022-11-25T22:49:33.890Z,22.95
2022-11-25T22:51:39.124Z,21.65
2022-11-25T22:53:44.152Z,17.30
2022-11-25T22:55:53.870Z,21.38
2022-11-25T22:58:00.493Z,26.20
2022-11-25T23:00:05.575Z,28.13
2022-11-25T23:02:16.377Z,29.98
2022-11-25T23:04:23.166Z,29.50
2022-11-25T23:06:31.135Z,25.13
2022-11-25T23:08:36.176Z,22.20
2022-11-25T23:10:41.432Z,21.98
2022-11-25T23:12:49.812Z,18.17
2022-11-25T23:14:54.902Z,16.70
2022-11-25T23:16:59.993Z,16.40
2022-11-25T23:19:06.136Z,18.77
2022-11-25T23:21:19.706Z,14.95
2022-11-25T23:23:27.149Z,15.65
2022-11-25T23:25:32.193Z,15.50
2022-11-25T23:27:37.343Z,14.38
2022-11-25T23:29:45.154Z,16.58
2022-11-25T23:31:50.890Z,20.40
2022-11-25T23:33:55.977Z,13.38
2022-11-25T23:36:07.576Z,18.20
2022-11-25T23:38:19.292Z,18.45
2022-11-25T23:40:26.493Z,22.35
2022-11-25T23:42:31.573Z,13.45
2022-11-25T23:44:36.947Z,16.55
2022-11-25T23:46:48.489Z,21.85
2022-11-25T23:48:57.768Z,20.30
2022-11-25T23:51:03.634Z,19.35
2022-11-25T23:53:16.166Z,21.75
2022-11-25T23:55:28.122Z,19.17
2022-11-25T23:57:35.896Z,19.40
2022-11-25T23:59:40.917Z,20.77
